createdAt,value
2018-10-09T00:01:46.993Z,19.90
2018-10-09T00:04:24.696Z,20.00
2018-10-09T00:06:58.305Z,20.00
2018-10-09T00:09:31.666Z,20.00
2018-10-09T00:12:04.298Z,20.00
2018-10-09T00:14:36.949Z,20.00
2018-10-09T00:17:09.721Z,19.90
2018-10-09T00:19:42.629Z,19.90
2018-10-09T00:22:16.286Z,19.90
2018-10-09T00:24:49.203Z,19.90
2018-10-09T00:27:22.202Z,19.90
2018-10-09T00:29:54.560Z,19.90
2018-10-09T00:32:32.666Z,19.90
2018-10-09T00:35:05.184Z,19.90
2018-10-09T00:37:38.008Z,19.90
2018-10-09T00:40:10.988Z,19.90
2018-10-09T00:42:43.510Z,19.90
2018-10-09T00:45:16.014Z,19.80
2018-10-09T00:47:49.707Z,19.80
2018-10-09T00:50:22.498Z,19.70
2018-10-09T00:53:01.527Z,19.70
2018-10-09T00:55:33.933Z,19.80
2018-10-09T00:58:06.520Z,19.80
2018-10-09T01:00:38.886Z,19.80
2018-10-09T01:03:11.528Z,19.80
2018-10-09T01:05:44.056Z,19.80
2018-10-09T01:08:16.495Z,19.90
2018-10-09T01:10:48.984Z,19.90
2018-10-09T01:13:22.177Z,19.90
2018-10-09T01:15:54.967Z,19.80
2018-10-09T01:18:27.548Z,19.80
2018-10-09T01:21:00.308Z,19.80
2018-10-09T01:23:33.222Z,19.80
2018-10-09T01:26:07.043Z,19.70
2018-10-09T01:28:39.679Z,19.70
2018-10-09T01:31:12.224Z,19.70
2018-10-09T01:33:45.174Z,19.60
2018-10-09T01:36:17.619Z,19.60
2018-10-09T01:38:50.184Z,19.50
2018-10-09T01:41:27.568Z,19.60
2018-10-09T01:44:00.194Z,19.60
2018-10-09T01:46:32.621Z,19.60
2018-10-09T01:49:05.129Z,19.60
2018-10-09T01:51:38.206Z,19.60
2018-10-09T01:54:11.167Z,19.50
2018-10-09T01:56:43.661Z,19.40
2018-10-09T01:59:16.542Z,19.40
2018-10-09T02:01:49.013Z,19.40
2018-10-09T02:04:21.736Z,19.50
2018-10-09T02:06:54.151Z,19.40
2018-10-09T02:09:27.735Z,19.50
2018-10-09T02:12:00.253Z,19.50
2018-10-09T02:14:34.819Z,19.60
2018-10-09T02:17:07.492Z,19.60
2018-10-09T02:19:40.212Z,19.60
2018-10-09T02:22:18.617Z,19.60
2018-10-09T02:24:56.748Z,19.60
2018-10-09T02:27:29.163Z,19.60
2018-10-09T02:30:01.942Z,19.80
2018-10-09T02:32:34.452Z,19.80
2018-10-09T02:35:07.224Z,19.80
2018-10-09T02:37:39.745Z,19.70
2018-10-09T02:40:18.621Z,19.70
2018-10-09T02:42:51.139Z,19.70
2018-10-09T02:45:23.812Z,19.70
2018-10-09T02:47:56.417Z,19.70
2018-10-09T02:50:29.093Z,19.60
2018-10-09T02:53:01.725Z,19.60
2018-10-09T02:55:34.461Z,19.60
2018-10-09T02:58:06.940Z,19.60
2018-10-09T03:00:39.313Z,19.60
2018-10-09T03:03:13.465Z,19.60
2018-10-09T03:05:46.000Z,19.60
2018-10-09T03:08:18.888Z,19.60
2018-10-09T03:10:58.684Z,19.60
2018-10-09T03:13:32.187Z,19.60
2018-10-09T03:16:05.321Z,19.60
2018-10-09T03:18:37.777Z,19.60
2018-10-09T03:21:10.604Z,19.60
2018-10-09T03:23:43.304Z,19.70
2018-10-09T03:26:18.939Z,19.60
2018-10-09T03:28:52.290Z,19.60
2018-10-09T03:31:26.521Z,19.70
2018-10-09T03:33:59.422Z,19.70
2018-10-09T03:36:32.160Z,19.70
2018-10-09T03:39:06.046Z,19.70
2018-10-09T03:41:39.290Z,19.70
2018-10-09T03:44:17.648Z,19.70
2018-10-09T03:46:50.100Z,19.70
2018-10-09T03:49:22.681Z,19.60
2018-10-09T03:51:55.336Z,19.50
2018-10-09T03:54:27.632Z,19.50
2018-10-09T03:57:00.038Z,19.50
2018-10-09T03:59:32.731Z,19.50
2018-10-09T04:02:05.344Z,19.40
2018-10-09T04:04:44.018Z,19.40
2018-10-09T04:07:16.696Z,19.40
2018-10-09T04:09:49.245Z,19.40
2018-10-09T04:12:21.708Z,19.30
2018-10-09T04:14:54.320Z,19.30
2018-10-09T04:17:26.833Z,19.30
2018-10-09T04:19:59.287Z,19.20
2018-10-09T04:22:31.776Z,19.30
2018-10-09T04:25:04.496Z,19.30
2018-10-09T04:27:37.010Z,19.30
2018-10-09T04:30:09.417Z,19.30
2018-10-09T04:32:42.665Z,19.30
2018-10-09T04:35:15.053Z,19.40
2018-10-09T04:37:47.441Z,19.40
2018-10-09T04:40:19.805Z,19.40
2018-10-09T04:42:52.227Z,19.40
2018-10-09T04:45:25.096Z,19.40
2018-10-09T04:47:57.677Z,19.40
2018-10-09T04:50:30.628Z,19.40
2018-10-09T04:53:03.246Z,19.40
2018-10-09T04:55:35.830Z,19.30
2018-10-09T04:58:08.653Z,19.30
2018-10-09T05:00:48.417Z,19.30
2018-10-09T05:03:21.234Z,19.20
2018-10-09T05:05:53.746Z,19.20
2018-10-09T05:08:26.500Z,19.20
2018-10-09T05:10:58.928Z,19.20
2018-10-09T05:13:31.864Z,19.30
2018-10-09T05:16:04.571Z,19.30
2018-10-09T05:18:37.095Z,19.30
2018-10-09T05:21:09.503Z,19.30
2018-10-09T05:23:41.908Z,19.30
2018-10-09T05:27:43.305Z,19.20
2018-10-09T05:30:22.836Z,19.30
2018-10-09T05:33:02.273Z,19.20
2018-10-09T05:35:35.100Z,19.20
2018-10-09T05:38:08.428Z,19.20
2018-10-09T05:40:40.770Z,19.20
2018-10-09T05:43:13.299Z,19.20
2018-10-09T05:45:45.740Z,19.20
2018-10-09T05:48:18.317Z,19.20
2018-10-09T05:50:50.833Z,19.20
2018-10-09T05:53:23.159Z,19.30
2018-10-09T05:55:55.712Z,19.30
2018-10-09T05:58:28.257Z,19.30
2018-10-09T06:01:00.785Z,19.20
2018-10-09T06:03:33.562Z,19.20
2018-10-09T06:15:06.888Z,19.20
2018-10-09T06:17:39.542Z,19.30
2018-10-09T06:20:17.521Z,19.30
2018-10-09T06:22:50.000Z,19.30
2018-10-09T06:25:22.457Z,19.20
2018-10-09T06:27:55.182Z,19.30
2018-10-09T06:30:28.259Z,19.40
2018-10-09T06:33:04.761Z,19.40
2018-10-09T06:35:38.242Z,19.40
2018-10-09T06:38:12.082Z,19.40
2018-10-09T06:40:45.273Z,19.40
2018-10-09T06:43:18.003Z,19.40
2018-10-09T06:45:51.617Z,19.40
2018-10-09T06:48:24.335Z,19.30
2018-10-09T06:50:56.804Z,19.30
2018-10-09T06:53:29.505Z,19.20
2018-10-09T06:56:02.382Z,19.20
2018-10-09T06:58:34.951Z,19.20
2018-10-09T07:01:08.059Z,19.20
2018-10-09T07:03:40.711Z,19.20
2018-10-09T07:06:15.683Z,19.30
2018-10-09T07:08:49.019Z,19.30
2018-10-09T07:11:22.877Z,19.40
2018-10-09T07:13:55.534Z,19.40
2018-10-09T07:16:28.195Z,19.40
2018-10-09T07:19:06.097Z,19.40
2018-10-09T07:21:39.010Z,19.50
2018-10-09T07:24:12.729Z,19.50
2018-10-09T07:26:45.914Z,19.50
2018-10-09T07:29:18.617Z,19.50
2018-10-09T07:31:52.418Z,19.50
2018-10-09T07:34:25.267Z,19.50
2018-10-09T07:36:57.941Z,19.40
2018-10-09T07:39:30.377Z,19.40
2018-10-09T07:42:02.972Z,19.40
2018-10-09T07:44:41.377Z,19.40
2018-10-09T07:47:14.258Z,19.40
2018-10-09T07:49:47.215Z,19.40
2018-10-09T07:52:20.231Z,19.30
2018-10-09T07:54:52.724Z,19.20
2018-10-09T07:57:26.197Z,19.10
2018-10-09T07:59:59.543Z,19.10
2018-10-09T08:02:32.908Z,19.10
2018-10-09T08:05:05.677Z,19.10
2018-10-09T08:07:38.643Z,19.00
2018-10-09T08:10:11.372Z,19.00
2018-10-09T08:12:51.547Z,18.90
2018-10-09T08:15:24.028Z,18.90
2018-10-09T08:17:56.579Z,19.00
2018-10-09T08:20:29.319Z,19.00
2018-10-09T08:23:02.188Z,19.00
2018-10-09T08:25:36.015Z,19.00
2018-10-09T08:28:09.501Z,18.90
2018-10-09T08:35:38.530Z,19.00
2018-10-09T08:38:17.080Z,19.10
2018-10-09T08:40:50.037Z,19.00
2018-10-09T08:43:23.074Z,19.00
2018-10-09T08:45:56.425Z,19.00
2018-10-09T08:48:29.956Z,19.00
2018-10-09T08:51:03.041Z,19.00
2018-10-09T08:53:36.240Z,19.00
2018-10-09T08:56:09.435Z,19.00
2018-10-09T08:58:42.691Z,19.00
2018-10-09T09:01:15.362Z,19.10
2018-10-09T09:03:48.425Z,19.10
2018-10-09T09:06:23.028Z,19.00
2018-10-09T09:08:55.571Z,19.10
2018-10-09T09:11:28.415Z,19.20
2018-10-09T09:14:01.761Z,19.20
2018-10-09T09:16:34.267Z,19.30
2018-10-09T09:19:07.492Z,19.30
2018-10-09T09:21:41.027Z,19.30
2018-10-09T09:24:14.053Z,19.20
2018-10-09T09:26:48.065Z,19.20
2018-10-09T09:29:21.698Z,19.10
2018-10-09T09:31:56.008Z,19.10
2018-10-09T09:34:29.695Z,19.10
2018-10-09T09:37:03.570Z,19.10
2018-10-09T09:39:36.998Z,19.20
2018-10-09T09:42:10.400Z,19.20
2018-10-09T09:44:43.103Z,19.20
2018-10-09T09:47:15.954Z,19.20
2018-10-09T09:49:48.718Z,19.20
2018-10-09T09:52:26.979Z,19.30
2018-10-09T09:54:59.461Z,19.30
2018-10-09T09:57:32.659Z,19.30
2018-10-09T10:00:05.482Z,19.30
2018-10-09T10:02:38.664Z,19.30
2018-10-09T10:05:17.989Z,19.30
2018-10-09T10:07:51.315Z,19.30
2018-10-09T10:10:23.962Z,19.40
2018-10-09T10:12:56.640Z,19.40
2018-10-09T10:15:29.560Z,19.40
2018-10-09T10:18:02.802Z,19.40
2018-10-09T10:20:35.360Z,19.40
2018-10-09T10:23:08.384Z,19.30
2018-10-09T10:25:40.959Z,19.40
2018-10-09T10:28:13.772Z,19.40
2018-10-09T10:30:46.310Z,19.40
2018-10-09T10:33:19.139Z,19.40
2018-10-09T10:35:57.016Z,19.40
2018-10-09T10:38:29.846Z,19.50
2018-10-09T10:41:02.448Z,19.40
2018-10-09T10:43:35.240Z,19.40
2018-10-09T10:46:07.953Z,19.40
2018-10-09T10:49:13.004Z,19.40
2018-10-09T10:51:50.392Z,19.30
2018-10-09T10:54:24.054Z,19.30
2018-10-09T10:56:57.100Z,19.20
2018-10-09T10:59:29.741Z,19.20
2018-10-09T11:02:02.913Z,19.30
2018-10-09T11:04:42.044Z,19.30
2018-10-09T11:07:15.434Z,19.30
2018-10-09T11:09:49.196Z,19.30
2018-10-09T11:12:22.298Z,19.30
2018-10-09T11:14:55.114Z,19.30
2018-10-09T11:17:34.164Z,19.30
2018-10-09T11:20:07.001Z,19.30
2018-10-09T11:22:39.542Z,19.20
2018-10-09T11:25:12.410Z,19.20
2018-10-09T11:27:45.421Z,19.20
2018-10-09T11:30:18.555Z,19.20
2018-10-09T11:32:51.479Z,19.20
2018-10-09T11:35:24.833Z,19.30
2018-10-09T11:38:07.291Z,19.30
2018-10-09T11:40:41.137Z,19.20
2018-10-09T11:43:19.892Z,19.30
2018-10-09T11:46:01.776Z,19.30
2018-10-09T11:48:35.428Z,19.20
2018-10-09T11:51:09.254Z,19.20
2018-10-09T11:53:41.984Z,19.30
2018-10-09T11:56:14.631Z,19.30
2018-10-09T11:58:47.430Z,19.30
2018-10-09T12:01:21.155Z,19.40
2018-10-09T12:03:57.660Z,19.30
2018-10-09T12:06:31.515Z,19.40
2018-10-09T12:09:06.449Z,19.40
2018-10-09T12:11:44.441Z,19.40
2018-10-09T12:14:17.371Z,19.40
2018-10-09T12:16:49.949Z,19.30
2018-10-09T12:19:23.347Z,19.20
2018-10-09T12:21:56.163Z,19.10
2018-10-09T12:24:28.919Z,19.10
2018-10-09T12:27:01.705Z,19.00
2018-10-09T12:29:42.015Z,19.00
2018-10-09T12:32:17.278Z,19.00
2018-10-09T12:34:52.052Z,19.10
2018-10-09T12:37:27.912Z,19.10
2018-10-09T12:40:03.295Z,19.20
2018-10-09T12:42:39.823Z,19.20
2018-10-09T12:45:18.294Z,19.20
2018-10-09T12:47:58.653Z,19.30
2018-10-09T12:50:32.367Z,19.30
2018-10-09T12:53:05.384Z,19.20
2018-10-09T12:55:41.422Z,19.30
2018-10-09T12:58:14.448Z,19.30
2018-10-09T13:00:48.197Z,19.40
2018-10-09T13:03:24.664Z,19.40
2018-10-09T13:05:58.109Z,19.40
2018-10-09T13:08:30.660Z,19.40
2018-10-09T13:11:03.696Z,19.50
2018-10-09T13:13:45.217Z,19.60
2018-10-09T13:16:17.844Z,19.60
2018-10-09T13:18:50.552Z,19.70
2018-10-09T13:21:23.785Z,19.70
2018-10-09T13:24:01.784Z,19.80
2018-10-09T13:26:35.099Z,19.80
2018-10-09T13:29:07.999Z,19.90
2018-10-09T13:31:40.683Z,19.90
2018-10-09T13:34:15.066Z,20.00
2018-10-09T13:36:48.590Z,20.00
2018-10-09T13:39:30.058Z,20.00
2018-10-09T13:42:05.203Z,20.00
2018-10-09T13:44:43.427Z,20.00
2018-10-09T13:47:15.985Z,20.00
2018-10-09T13:50:04.974Z,20.10
2018-10-09T13:52:43.378Z,20.10
2018-10-09T13:55:16.293Z,20.10
2018-10-09T13:57:49.969Z,20.20
2018-10-09T14:00:22.593Z,20.30
2018-10-09T14:02:55.485Z,20.40
2018-10-09T14:05:29.346Z,20.40
2018-10-09T14:08:06.539Z,20.50
2018-10-09T14:10:44.885Z,20.50
2018-10-09T14:13:17.767Z,20.60
2018-10-09T14:15:53.001Z,20.70
2018-10-09T14:18:29.073Z,20.80
2018-10-09T14:21:02.809Z,20.80
2018-10-09T14:23:39.888Z,20.80
2018-10-09T14:26:15.109Z,20.90
2018-10-09T14:28:48.557Z,20.90
2018-10-09T14:31:24.846Z,20.80
2018-10-09T14:33:57.573Z,20.80
2018-10-09T14:36:30.938Z,20.80
2018-10-09T14:39:06.096Z,20.70
2018-10-09T14:41:46.435Z,20.70
2018-10-09T14:44:20.467Z,20.60
2018-10-09T14:46:54.479Z,20.70
2018-10-09T14:49:29.000Z,20.70
2018-10-09T14:52:02.697Z,20.80
2018-10-09T14:54:36.865Z,20.80
2018-10-09T14:57:10.904Z,20.90
2018-10-09T14:59:43.589Z,21.00
2018-10-09T15:02:17.009Z,21.10
2018-10-09T15:04:51.777Z,21.20
2018-10-09T15:07:24.576Z,21.20
2018-10-09T15:10:06.746Z,21.40
2018-10-09T15:12:42.781Z,21.40
2018-10-09T15:15:16.555Z,21.40
2018-10-09T15:17:50.446Z,21.50
2018-10-09T15:20:24.840Z,21.50
2018-10-09T15:23:10.603Z,21.60
2018-10-09T15:25:49.233Z,21.60
2018-10-09T15:28:30.888Z,21.60
2018-10-09T15:31:09.655Z,21.60
2018-10-09T15:33:53.558Z,21.70
2018-10-09T15:36:44.304Z,21.70
2018-10-09T15:42:07.943Z,21.90
2018-10-09T15:44:44.459Z,21.90
2018-10-09T15:47:27.305Z,22.00
2018-10-09T15:50:06.594Z,22.00
2018-10-09T15:52:44.566Z,22.10
2018-10-09T15:58:26.178Z,22.30
2018-10-09T16:03:47.935Z,22.30
2018-10-09T16:06:27.926Z,22.30
2018-10-09T16:09:09.659Z,22.30
2018-10-09T16:11:48.811Z,22.40
2018-10-09T16:14:38.823Z,22.50
2018-10-09T16:17:14.515Z,22.70
2018-10-09T16:19:51.091Z,22.80
2018-10-09T16:22:29.239Z,22.80
2018-10-09T16:27:59.127Z,23.00
2018-10-09T16:30:47.776Z,23.00
2018-10-09T16:33:43.467Z,23.10
2018-10-09T16:36:24.214Z,23.20
2018-10-09T16:39:06.615Z,23.20
2018-10-09T16:41:45.415Z,23.20
2018-10-09T16:44:28.595Z,23.20
2018-10-09T16:47:07.280Z,23.20
2018-10-09T16:52:34.106Z,23.20
2018-10-09T16:55:12.425Z,23.20
2018-10-09T17:00:43.028Z,23.20
2018-10-09T17:03:24.746Z,23.20
2018-10-09T17:08:43.297Z,23.20
2018-10-09T17:11:29.253Z,23.20
2018-10-09T17:14:14.738Z,23.20
2018-10-09T17:16:53.061Z,23.20
2018-10-09T17:19:36.956Z,23.30
2018-10-09T17:22:23.689Z,23.40
2018-10-09T17:25:06.749Z,23.50
2018-10-09T17:28:01.802Z,23.50
2018-10-09T17:30:49.635Z,23.40
2018-10-09T17:33:31.028Z,23.30
2018-10-09T17:36:12.981Z,23.20
2018-10-09T17:39:09.814Z,23.00
2018-10-09T17:42:03.077Z,22.90
2018-10-09T17:44:44.089Z,22.70
2018-10-09T17:47:23.991Z,22.50
2018-10-09T17:50:11.212Z,22.40
2018-10-09T17:53:01.442Z,22.20
2018-10-09T17:55:42.909Z,22.20
2018-10-09T17:58:21.516Z,22.10
2018-10-09T18:00:55.793Z,21.90
2018-10-09T18:03:29.953Z,21.80
2018-10-09T18:06:14.259Z,21.80
2018-10-09T18:08:54.024Z,21.80
2018-10-09T18:11:44.401Z,21.90
2018-10-09T18:14:32.722Z,21.90
2018-10-09T18:17:14.111Z,22.10
2018-10-09T18:19:56.684Z,22.30
2018-10-09T18:22:42.538Z,22.30
2018-10-09T18:25:28.627Z,22.50
2018-10-09T18:28:29.144Z,22.60
2018-10-09T18:31:17.573Z,22.70
2018-10-09T18:33:59.674Z,22.70
2018-10-09T18:36:35.088Z,22.70
2018-10-09T18:39:13.553Z,22.60
2018-10-09T18:41:48.113Z,22.50
2018-10-09T18:44:22.797Z,22.40
2018-10-09T18:46:58.429Z,22.30
2018-10-09T18:49:31.750Z,22.20
2018-10-09T18:52:06.016Z,22.20
2018-10-09T18:54:39.034Z,22.10
2018-10-09T18:57:11.856Z,22.00
2018-10-09T18:59:45.391Z,22.00
2018-10-09T19:02:24.523Z,21.90
2018-10-09T19:05:01.182Z,21.90
2018-10-09T19:07:47.619Z,22.00
2018-10-09T19:10:21.975Z,22.10
2018-10-09T19:13:08.815Z,22.20
2018-10-09T19:15:44.001Z,22.50
2018-10-09T19:18:31.376Z,22.70
2018-10-09T19:21:15.128Z,22.80
2018-10-09T19:24:10.484Z,22.90
2018-10-09T19:26:47.478Z,22.80
2018-10-09T19:29:46.126Z,22.70
2018-10-09T19:32:33.531Z,22.70
2018-10-09T19:35:16.841Z,22.60
2018-10-09T19:37:58.447Z,22.60
2018-10-09T19:40:51.776Z,22.60
2018-10-09T19:43:31.703Z,22.60
2018-10-09T19:46:09.459Z,22.60
2018-10-09T19:48:57.707Z,22.50
2018-10-09T19:51:38.099Z,22.60
2018-10-09T19:54:26.584Z,22.70
2018-10-09T19:57:07.576Z,22.80
2018-10-09T19:59:48.421Z,22.90
2018-10-09T20:05:39.933Z,23.00
2018-10-09T20:08:25.347Z,23.00
2018-10-09T20:11:10.852Z,23.00
2018-10-09T20:13:58.223Z,23.00
2018-10-09T20:16:43.480Z,23.00
2018-10-09T20:19:27.251Z,23.00
2018-10-09T20:22:02.427Z,23.00
2018-10-09T20:24:41.555Z,22.90
2018-10-09T20:30:15.997Z,22.90
2018-10-09T20:32:59.180Z,22.80
2018-10-09T20:35:36.427Z,22.80
2018-10-09T20:40:54.012Z,22.80
2018-10-09T20:43:30.850Z,22.70
2018-10-09T20:46:05.877Z,22.70
2018-10-09T20:48:40.876Z,22.80
2018-10-09T20:51:16.376Z,22.80
2018-10-09T20:53:51.625Z,22.80
2018-10-09T20:56:27.756Z,22.80
2018-10-09T20:59:07.669Z,22.80
2018-10-09T21:01:47.872Z,22.70
2018-10-09T21:04:26.201Z,22.70
2018-10-09T21:07:05.407Z,22.70
2018-10-09T21:09:48.141Z,22.80
2018-10-09T21:12:25.834Z,22.80
2018-10-09T21:15:01.035Z,22.80
2018-10-09T21:17:36.019Z,22.70
2018-10-09T21:20:08.453Z,22.70
2018-10-09T21:22:41.545Z,22.60
2018-10-09T21:25:14.024Z,22.50
2018-10-09T21:27:49.221Z,22.40
2018-10-09T21:30:27.104Z,22.30
2018-10-09T21:33:00.988Z,22.20
2018-10-09T21:35:34.407Z,22.20
2018-10-09T21:38:07.441Z,22.20
2018-10-09T21:40:40.141Z,22.00
2018-10-09T21:43:13.157Z,21.90
2018-10-09T21:45:45.904Z,21.80
2018-10-09T21:48:19.665Z,21.70
2018-10-09T21:50:53.567Z,21.60
2018-10-09T21:53:26.295Z,21.60
2018-10-09T21:55:58.824Z,21.60
2018-10-09T21:58:32.225Z,21.50
2018-10-09T22:01:08.863Z,21.30
2018-10-09T22:03:41.527Z,21.20
2018-10-09T22:06:14.192Z,21.20
2018-10-09T22:08:47.086Z,21.20
2018-10-09T22:11:19.747Z,21.10
2018-10-09T22:13:52.911Z,21.10
2018-10-09T22:16:25.392Z,21.00
2018-10-09T22:19:00.558Z,21.00
2018-10-09T22:21:34.977Z,21.00
2018-10-09T22:24:10.683Z,21.00
2018-10-09T22:26:48.865Z,21.00
2018-10-09T22:29:23.318Z,20.90
2018-10-09T22:32:01.374Z,20.90
2018-10-09T22:34:34.649Z,20.70
2018-10-09T22:37:07.626Z,20.70
2018-10-09T22:39:40.672Z,20.60
2018-10-09T22:42:13.342Z,20.70
2018-10-09T22:44:46.354Z,20.70
2018-10-09T22:47:19.163Z,20.60
2018-10-09T22:49:52.473Z,20.50
2018-10-09T22:52:30.249Z,20.40
2018-10-09T22:55:02.865Z,20.40
2018-10-09T22:57:41.882Z,20.40
2018-10-09T23:00:14.611Z,20.30
2018-10-09T23:02:51.561Z,20.30
2018-10-09T23:05:24.161Z,20.30
2018-10-09T23:07:56.889Z,20.30
2018-10-09T23:10:30.359Z,20.30
2018-10-09T23:13:02.905Z,20.30
2018-10-09T23:15:36.792Z,20.20
2018-10-09T23:18:09.278Z,20.20
2018-10-09T23:20:41.959Z,20.20
2018-10-09T23:23:15.427Z,20.20
2018-10-09T23:25:49.114Z,20.10
2018-10-09T23:28:22.187Z,20.10
2018-10-09T23:30:55.191Z,20.10
2018-10-09T23:33:27.936Z,20.00
2018-10-09T23:36:05.264Z,20.00
2018-10-09T23:38:39.408Z,19.90
2018-10-09T23:41:14.045Z,19.90
2018-10-09T23:43:51.654Z,19.80
2018-10-09T23:46:27.271Z,19.80
2018-10-09T23:48:59.940Z,19.80
2018-10-09T23:51:34.399Z,19.80
2018-10-09T23:54:06.764Z,19.80
2018-10-09T23:56:39.357Z,19.80
2018-10-09T23:59:11.870Z,19.80
